»·PEaware :: N333ZS KSNA-KBUR

N333ZS :: KSNA-KBUR

FLIGHT INFORMATION

Flight Status: Arrived
Operator: Privately registered:
United States
More flights under this callsign
Pilot: Judd H. (29974)
Aircraft: CESSNA 182 SKYLANE
(C182)
More flights by this aircraft type
Origin: KSNA John Wayne-Orange Co
United States
Destination: KBUR Bob Hope-Burbank
United States
More flights between these airports :: More routes between these airports
Route: CSTP1
File this flight plan on PilotEdge
Remarks:
Altitude:
(Current/Filed)
4,000ft
Speed:
(Current/Filed)
120kts
Departed: 12-Oct-20 12:55 PM
Arrived: 12-Oct-20 01:32 PM
Distance/Time
Traveled:
40nm/0:36
Distance/Time
To Go:
Arrived

Flight Plot

Page will automatically refresh every two minutes.

Flight plan parsing failed; only flown route is shown


Map Options




Map Legend


Flown Route
Filed Route
Departure Airport
Arrival Airport
Navaid (VOR, NDB)
Fix

Horizontal Profiles

Position Reports

Time Latitude Longitude Heading Altitude Ground
Speed
12-Oct-20 12:27 33.675262 -117.871309 220 59ft 0kts
12-Oct-20 12:28 33.675262 -117.871309 220 59ft 0kts
12-Oct-20 12:29 33.675259 -117.871311 219 59ft 0kts
12-Oct-20 12:30 33.675258 -117.871312 219 59ft 0kts
12-Oct-20 12:31 33.675257 -117.871313 219 59ft 0kts
12-Oct-20 12:32 33.675256 -117.871314 219 59ft 0kts
12-Oct-20 12:33 33.675255 -117.871315 219 59ft 0kts
12-Oct-20 12:34 33.675254 -117.871316 219 59ft 0kts
12-Oct-20 12:35 33.675253 -117.871317 219 59ft 0kts
12-Oct-20 12:36 33.675252 -117.871318 219 59ft 0kts
12-Oct-20 12:37 33.675251 -117.871319 219 59ft 0kts
12-Oct-20 12:38 33.675251 -117.871320 219 59ft 0kts
12-Oct-20 12:39 33.675250 -117.871321 219 59ft 0kts
12-Oct-20 12:40 33.675249 -117.871322 219 59ft 0kts
12-Oct-20 12:41 33.675248 -117.871323 219 59ft 0kts
12-Oct-20 12:42 33.675247 -117.871324 219 59ft 0kts
12-Oct-20 12:43 33.675246 -117.871325 219 59ft 0kts
12-Oct-20 12:44 33.675245 -117.871326 219 59ft 0kts
12-Oct-20 12:45 33.675244 -117.871327 219 59ft 0kts
12-Oct-20 12:46 33.675243 -117.871328 219 59ft 0kts
12-Oct-20 12:47 33.675242 -117.871329 219 59ft 0kts
12-Oct-20 12:48 33.675019 -117.871125 88 59ft 8kts
12-Oct-20 12:49 33.677978 -117.868993 26 59ft 13kts
12-Oct-20 12:50 33.680939 -117.867152 26 59ft 9kts
12-Oct-20 12:51 33.681265 -117.866617 154 59ft 0kts
12-Oct-20 12:52 33.681129 -117.866572 171 59ft 0kts
12-Oct-20 12:53 33.679907 -117.866190 207 59ft 32kts
12-Oct-20 12:54 33.659777 -117.885331 233 668ft 115kts
12-Oct-20 12:55 33.639567 -117.917052 233 1270ft 122kts
12-Oct-20 12:56 33.618775 -117.949077 235 1934ft 115kts
12-Oct-20 12:57 33.599697 -117.979007 228 2593ft 117kts
12-Oct-20 12:58 33.605820 -118.010863 306 3211ft 113kts
12-Oct-20 12:59 33.628295 -118.037571 320 3745ft 115kts
12-Oct-20 13:00 33.652284 -118.065138 316 3992ft 130kts
12-Oct-20 13:01 33.678743 -118.095005 316 3983ft 128kts
12-Oct-20 13:02 33.704064 -118.124956 313 4001ft 127kts
12-Oct-20 13:03 33.728630 -118.155835 313 4010ft 128kts
12-Oct-20 13:04 33.753017 -118.186546 313 4009ft 127kts
12-Oct-20 13:05 33.779636 -118.214884 319 4009ft 127kts
12-Oct-20 13:06 33.805547 -118.243671 315 4009ft 127kts
12-Oct-20 13:07 33.831220 -118.273738 315 4009ft 127kts
12-Oct-20 13:08 33.856608 -118.303235 316 4010ft 126kts
12-Oct-20 13:09 33.883523 -118.330302 322 4009ft 126kts
12-Oct-20 13:10 33.911209 -118.356318 318 4009ft 125kts
12-Oct-20 13:11 33.937752 -118.383545 319 4012ft 123kts
12-Oct-20 13:12 33.963686 -118.410074 319 4010ft 121kts
12-Oct-20 13:13 33.989372 -118.436515 320 4009ft 121kts
12-Oct-20 13:14 34.014685 -118.463323 311 4010ft 121kts
12-Oct-20 13:15 34.037152 -118.493512 312 4010ft 121kts
12-Oct-20 13:16 34.059714 -118.523773 312 4010ft 121kts
12-Oct-20 13:17 34.082278 -118.554068 312 4011ft 121kts
12-Oct-20 13:18 34.104962 -118.584421 312 4008ft 122kts
12-Oct-20 13:19 34.126225 -118.613047 311 4012ft 107kts
12-Oct-20 13:20 34.146188 -118.639932 313 4011ft 107kts
12-Oct-20 13:21 34.166174 -118.666809 312 4010ft 107kts
12-Oct-20 13:22 34.189122 -118.664446 60 3989ft 116kts
12-Oct-20 13:23 34.200585 -118.628750 81 3743ft 117kts
12-Oct-20 13:24 34.200929 -118.587760 91 3728ft 123kts
12-Oct-20 13:25 34.200038 -118.546693 87 3634ft 126kts
12-Oct-20 13:26 34.199767 -118.510786 89 3066ft 101kts
12-Oct-20 13:27 34.199262 -118.475316 90 2491ft 109kts
12-Oct-20 13:28 34.198877 -118.439075 89 1902ft 103kts
12-Oct-20 13:29 34.198364 -118.405444 89 1364ft 92kts
12-Oct-20 13:30 34.197953 -118.375555 90 885ft 88kts
12-Oct-20 13:31 34.197977 -118.357937 20 724ft 9kts
12-Oct-20 13:32 34.199659 -118.358716 297 724ft 16kts
12-Oct-20 13:33 34.200910 -118.358960 268 724ft 0kts
12-Oct-20 13:34 34.200910 -118.358960 268 724ft 0kts
12-Oct-20 13:35 34.200910 -118.358960 268 724ft 0kts
12-Oct-20 13:36 34.200910 -118.358960 268 724ft 0kts

Navigation Log

Ident Type
Flight plan parsing failed, navigation log unavailable